createdAt,value
2022-08-02T00:01:22.490Z,63.95
2022-08-02T00:03:50.224Z,63.87
2022-08-02T00:06:18.242Z,63.58
2022-08-02T00:08:45.985Z,63.59
2022-08-02T00:11:13.817Z,63.76
2022-08-02T00:13:41.648Z,63.95
2022-08-02T00:16:09.400Z,64.08
2022-08-02T00:18:38.449Z,63.97
2022-08-02T00:21:08.967Z,64.09
2022-08-02T00:24:03.263Z,64.20
2022-08-02T00:26:27.156Z,64.54
2022-08-02T00:28:54.872Z,64.12
2022-08-02T00:31:22.825Z,64.38
2022-08-02T00:34:04.911Z,64.19
2022-08-02T00:36:39.643Z,63.56
2022-08-02T00:39:07.380Z,63.97
2022-08-02T00:41:55.186Z,64.09
2022-08-02T00:44:22.941Z,63.98
2022-08-02T00:46:50.643Z,64.49
2022-08-02T00:49:21.223Z,64.26
2022-08-02T00:51:49.192Z,64.18
2022-08-02T00:54:17.023Z,64.14
2022-08-02T00:56:50.104Z,63.76
2022-08-02T00:59:19.207Z,63.84
2022-08-02T01:01:55.893Z,64.14
2022-08-02T01:04:30.143Z,64.27
2022-08-02T01:06:58.481Z,64.32
2022-08-02T01:09:26.238Z,64.07
2022-08-02T01:11:53.928Z,64.24
2022-08-02T01:14:24.291Z,64.08
2022-08-02T01:16:56.447Z,64.60
2022-08-02T01:19:34.205Z,64.84
2022-08-02T01:22:17.677Z,64.22
2022-08-02T01:25:00.128Z,64.81
2022-08-02T01:27:35.757Z,64.44
2022-08-02T01:30:07.070Z,64.63
2022-08-02T01:32:37.572Z,64.45
2022-08-02T01:35:11.107Z,64.33
2022-08-02T01:37:42.316Z,64.22
2022-08-02T01:40:13.316Z,63.86
2022-08-02T01:42:43.068Z,64.18
2022-08-02T01:45:13.699Z,64.18
2022-08-02T01:47:42.403Z,64.06
2022-08-02T01:50:13.014Z,63.97
2022-08-02T01:52:53.483Z,64.33
2022-08-02T01:55:34.908Z,64.20
2022-08-02T01:58:14.552Z,64.42
2022-08-02T02:00:44.111Z,64.00
2022-08-02T02:03:14.620Z,64.57
2022-08-02T02:05:43.871Z,64.14
2022-08-02T02:08:11.874Z,64.45
2022-08-02T02:10:41.193Z,64.25
2022-08-02T02:13:11.154Z,64.62
2022-08-02T02:15:44.553Z,64.74
2022-08-02T02:18:14.141Z,64.29
2022-08-02T02:20:42.927Z,64.38
2022-08-02T02:23:10.836Z,64.36
2022-08-02T02:25:46.821Z,64.32
2022-08-02T02:28:18.269Z,64.12
2022-08-02T02:30:50.246Z,64.38
2022-08-02T02:33:19.210Z,64.30
2022-08-02T02:35:48.812Z,64.59
2022-08-02T02:38:18.313Z,64.27
2022-08-02T02:40:46.796Z,64.59
2022-08-02T02:43:15.292Z,64.50
2022-08-02T02:45:43.356Z,64.54
2022-08-02T02:48:13.057Z,64.34
2022-08-02T02:50:42.649Z,64.17
2022-08-02T02:53:11.401Z,64.04
2022-08-02T02:55:39.481Z,64.04
2022-08-02T02:58:08.636Z,63.91
2022-08-02T03:00:53.916Z,63.96
2022-08-02T03:03:23.318Z,64.16
2022-08-02T03:05:52.140Z,63.80
2022-08-02T03:08:19.885Z,64.19
2022-08-02T03:10:48.093Z,64.07
2022-08-02T03:13:16.528Z,64.34
2022-08-02T03:15:44.524Z,64.13
2022-08-02T03:18:12.251Z,64.10
2022-08-02T03:20:42.842Z,64.35
2022-08-02T03:23:10.514Z,64.36
2022-08-02T03:25:38.241Z,64.02
2022-08-02T03:28:05.937Z,64.47
2022-08-02T03:30:33.714Z,64.67
2022-08-02T03:33:01.587Z,64.95
2022-08-02T03:35:29.492Z,64.46
2022-08-02T03:37:58.705Z,64.41
2022-08-02T03:40:26.899Z,64.78
2022-08-02T03:42:55.111Z,64.79
2022-08-02T03:45:23.440Z,65.19
2022-08-02T03:47:51.556Z,64.84
2022-08-02T03:50:19.823Z,65.02
2022-08-02T03:52:47.683Z,65.21
2022-08-02T03:55:16.798Z,65.80
2022-08-02T03:57:44.724Z,65.50
2022-08-02T04:00:19.079Z,65.39
2022-08-02T04:02:46.993Z,65.29
2022-08-02T04:05:15.037Z,65.46
2022-08-02T04:08:34.863Z,65.82
2022-08-02T04:10:52.726Z,65.87
2022-08-02T04:13:22.879Z,65.91
2022-08-02T04:15:51.844Z,65.95
2022-08-02T04:18:21.176Z,66.28
2022-08-02T04:20:50.305Z,66.66
2022-08-02T04:23:19.052Z,66.48
2022-08-02T04:25:48.095Z,66.79
2022-08-02T04:28:19.223Z,67.24
2022-08-02T04:30:55.983Z,66.73
2022-08-02T04:33:23.795Z,66.85
2022-08-02T04:35:52.851Z,67.94
2022-08-02T04:38:23.084Z,67.94
2022-08-02T04:40:54.447Z,69.39
2022-08-02T04:43:23.047Z,68.94
2022-08-02T04:45:53.805Z,69.93
2022-08-02T04:48:22.003Z,68.87
2022-08-02T04:50:49.852Z,68.29
2022-08-02T04:53:17.980Z,68.09
2022-08-02T04:55:45.780Z,68.65
2022-08-02T04:58:38.770Z,68.22
2022-08-02T05:01:05.270Z,68.50
2022-08-02T05:03:33.057Z,68.41
2022-08-02T05:06:03.901Z,68.88
2022-08-02T05:08:46.763Z,69.44
2022-08-02T05:11:21.528Z,69.88
2022-08-02T05:13:58.678Z,68.70
2022-08-02T05:16:30.969Z,68.79
2022-08-02T05:18:59.738Z,69.42
2022-08-02T05:21:27.612Z,69.86
2022-08-02T05:23:55.327Z,69.61
2022-08-02T05:26:23.018Z,70.06
2022-08-02T05:28:52.051Z,70.44
2022-08-02T05:31:20.047Z,71.06
2022-08-02T05:33:47.745Z,70.97
2022-08-02T05:36:15.838Z,72.44
2022-08-02T05:38:49.835Z,70.94
2022-08-02T05:41:17.979Z,72.57
2022-08-02T05:43:45.744Z,74.99
2022-08-02T05:46:14.921Z,72.65
2022-08-02T05:48:44.449Z,72.76
2022-08-02T05:51:13.899Z,75.06
2022-08-02T05:53:46.641Z,73.99
2022-08-02T05:56:23.897Z,73.50
2022-08-02T05:58:56.312Z,75.60
2022-08-02T06:01:29.526Z,76.29
2022-08-02T06:03:58.405Z,76.84
2022-08-02T06:06:26.965Z,76.53
2022-08-02T06:08:59.787Z,75.12
2022-08-02T06:11:35.528Z,77.49
2022-08-02T06:14:09.656Z,75.74
2022-08-02T06:16:42.087Z,78.57
2022-08-02T06:19:11.045Z,77.57
2022-08-02T06:22:32.033Z,80.51
2022-08-02T06:24:28.525Z,79.77
2022-08-02T06:26:57.351Z,80.07
2022-08-02T06:29:25.747Z,81.64
2022-08-02T06:31:55.104Z,81.41
2022-08-02T06:34:22.780Z,81.46
2022-08-02T06:36:55.189Z,80.70
2022-08-02T06:39:33.671Z,80.25
2022-08-02T06:42:04.768Z,80.39
2022-08-02T06:44:48.989Z,81.70
2022-08-02T06:47:20.893Z,81.21
2022-08-02T06:49:51.964Z,81.33
2022-08-02T06:52:27.399Z,81.23
2022-08-02T06:54:56.397Z,81.87
2022-08-02T06:57:24.173Z,81.28
2022-08-02T06:59:51.904Z,82.89
2022-08-02T07:02:21.106Z,80.90
2022-08-02T07:04:48.861Z,82.71
2022-08-02T07:07:16.578Z,80.64
2022-08-02T07:10:00.312Z,81.50
2022-08-02T07:12:31.566Z,80.78
2022-08-02T07:15:00.059Z,79.83
2022-08-02T07:17:32.619Z,81.00
2022-08-02T07:20:00.667Z,80.94
2022-08-02T07:22:29.873Z,80.17
2022-08-02T07:24:58.839Z,79.71
2022-08-02T07:27:26.972Z,79.65
2022-08-02T07:29:55.027Z,78.30
2022-08-02T07:32:24.114Z,77.54
2022-08-02T07:34:55.178Z,78.62
2022-08-02T07:37:52.976Z,77.44
2022-08-02T07:40:19.585Z,77.64
2022-08-02T07:42:48.679Z,77.03
2022-08-02T07:45:16.469Z,78.10
2022-08-02T07:47:44.927Z,77.45
2022-08-02T07:50:15.424Z,78.29
2022-08-02T07:52:44.565Z,77.02
2022-08-02T07:55:13.034Z,74.48
2022-08-02T07:57:46.088Z,73.97
2022-08-02T08:00:15.901Z,75.79
2022-08-02T08:02:44.029Z,73.73
2022-08-02T08:05:13.864Z,75.21
2022-08-02T08:07:41.641Z,73.82
2022-08-02T08:10:10.245Z,74.08
2022-08-02T08:12:38.301Z,73.83
2022-08-02T08:15:06.972Z,73.67
2022-08-02T08:17:35.016Z,72.18
2022-08-02T08:20:03.020Z,72.47
2022-08-02T08:22:32.457Z,73.13
2022-08-02T08:25:00.176Z,71.96
2022-08-02T08:27:29.996Z,70.98
2022-08-02T08:29:57.753Z,72.57
2022-08-02T08:32:26.946Z,71.61
2022-08-02T08:34:54.765Z,71.59
2022-08-02T08:37:22.478Z,69.52
2022-08-02T08:39:56.296Z,69.31
2022-08-02T08:42:25.771Z,70.29
2022-08-02T08:44:53.477Z,68.25
2022-08-02T08:47:22.156Z,66.55
2022-08-02T08:49:53.478Z,68.06
2022-08-02T08:52:22.986Z,68.53
2022-08-02T08:54:52.411Z,67.25
2022-08-02T08:57:21.212Z,66.10
2022-08-02T08:59:48.928Z,67.33
2022-08-02T09:02:21.701Z,67.54
2022-08-02T09:04:54.979Z,67.51
2022-08-02T09:07:23.193Z,66.82
2022-08-02T09:09:52.345Z,66.37
2022-08-02T09:12:22.155Z,67.41
2022-08-02T09:14:50.637Z,67.65
2022-08-02T09:17:18.881Z,66.13
2022-08-02T09:20:07.261Z,68.31
2022-08-02T09:22:35.052Z,65.06
2022-08-02T09:25:04.377Z,66.31
2022-08-02T09:27:36.921Z,67.01
2022-08-02T09:30:11.689Z,65.74
2022-08-02T09:32:49.530Z,65.67
2022-08-02T09:36:07.147Z,64.06
2022-08-02T09:38:19.950Z,66.82
2022-08-02T09:40:49.079Z,64.36
2022-08-02T09:43:17.316Z,65.05
2022-08-02T09:45:45.069Z,64.32
2022-08-02T09:48:13.193Z,64.81
2022-08-02T09:50:43.211Z,64.83
2022-08-02T09:53:13.265Z,64.70
2022-08-02T09:55:41.660Z,65.85
2022-08-02T09:58:20.892Z,65.58
2022-08-02T10:00:55.706Z,65.15
2022-08-02T10:03:25.317Z,64.89
2022-08-02T10:06:03.441Z,64.18
2022-08-02T10:08:33.397Z,65.40
2022-08-02T10:11:02.927Z,64.61
2022-08-02T10:13:34.632Z,63.52
2022-08-02T10:16:03.352Z,61.42
2022-08-02T10:18:40.912Z,59.44
2022-08-02T10:21:13.771Z,58.25
2022-08-02T10:23:44.372Z,58.25
2022-08-02T10:26:16.577Z,55.83
2022-08-02T10:28:47.363Z,58.62
2022-08-02T10:31:18.724Z,57.10
2022-08-02T10:33:50.187Z,57.29
2022-08-02T10:36:19.196Z,58.34
2022-08-02T10:38:47.488Z,56.24
2022-08-02T10:41:15.209Z,55.87
2022-08-02T10:43:49.171Z,54.99
2022-08-02T10:46:33.183Z,54.97
2022-08-02T10:49:37.519Z,56.25
2022-08-02T10:52:11.044Z,55.38
2022-08-02T10:54:40.696Z,54.91
2022-08-02T10:57:22.625Z,53.27
2022-08-02T10:59:53.392Z,54.16
2022-08-02T11:02:39.009Z,53.23
2022-08-02T11:05:15.403Z,53.60
2022-08-02T11:07:49.238Z,53.46
2022-08-02T11:10:35.465Z,52.54
2022-08-02T11:13:11.764Z,53.09
2022-08-02T11:15:52.625Z,52.60
2022-08-02T11:18:21.400Z,52.74
2022-08-02T11:21:21.796Z,53.84
2022-08-02T11:23:49.961Z,53.53
2022-08-02T11:26:43.009Z,53.87
2022-08-02T11:29:15.671Z,52.30
2022-08-02T11:31:46.465Z,52.23
2022-08-02T11:34:36.769Z,53.38
2022-08-02T11:37:02.845Z,54.15
2022-08-02T11:39:30.772Z,54.84
2022-08-02T11:41:59.884Z,53.79
2022-08-02T11:44:28.887Z,55.08
2022-08-02T11:46:58.876Z,56.14
2022-08-02T11:49:26.801Z,55.61
2022-08-02T11:51:57.420Z,56.25
2022-08-02T11:54:31.388Z,55.52
2022-08-02T11:57:20.196Z,55.33
2022-08-02T11:59:49.631Z,54.93
2022-08-02T12:02:20.618Z,55.52
2022-08-02T12:04:58.021Z,56.60
2022-08-02T12:07:35.455Z,55.57
2022-08-02T12:10:07.563Z,57.14
2022-08-02T12:12:35.482Z,54.48
2022-08-02T12:15:03.256Z,53.53
2022-08-02T12:17:47.717Z,53.44
2022-08-02T12:20:17.116Z,53.81
2022-08-02T12:22:45.157Z,48.36
2022-08-02T12:25:34.046Z,49.60
2022-08-02T12:28:21.225Z,49.82
2022-08-02T12:30:57.765Z,49.68
2022-08-02T12:33:29.881Z,50.33
2022-08-02T12:35:57.689Z,50.28
2022-08-02T12:38:25.436Z,51.94
2022-08-02T12:40:54.118Z,50.72
2022-08-02T12:43:24.209Z,51.45
2022-08-02T12:45:53.712Z,51.86
2022-08-02T12:48:38.010Z,52.57
2022-08-02T12:51:22.982Z,52.07
2022-08-02T12:53:59.145Z,50.45
2022-08-02T12:56:29.833Z,50.30
2022-08-02T12:58:57.800Z,51.77
2022-08-02T13:01:27.469Z,50.34
2022-08-02T13:04:11.063Z,51.14
2022-08-02T13:06:44.610Z,50.15
2022-08-02T13:09:14.988Z,49.31
2022-08-02T13:11:43.853Z,46.72
2022-08-02T13:14:12.517Z,47.30
2022-08-02T13:16:40.975Z,47.19
2022-08-02T13:19:10.278Z,47.44
2022-08-02T13:21:40.737Z,46.98
2022-08-02T13:24:38.864Z,48.58
2022-08-02T13:27:09.999Z,47.60
2022-08-02T13:29:38.446Z,47.43
2022-08-02T13:32:06.736Z,47.83
2022-08-02T13:34:36.213Z,48.13
2022-08-02T13:37:04.385Z,48.01
2022-08-02T13:39:32.225Z,45.96
2022-08-02T13:41:59.988Z,46.79
2022-08-02T13:44:27.985Z,47.88
2022-08-02T13:46:55.723Z,48.30
2022-08-02T13:49:50.992Z,48.04
2022-08-02T13:52:14.088Z,48.03
2022-08-02T13:54:42.077Z,46.78
2022-08-02T13:57:09.871Z,48.31
2022-08-02T13:59:58.005Z,48.61
2022-08-02T14:02:25.542Z,48.26
2022-08-02T14:04:53.360Z,47.51
2022-08-02T14:07:22.420Z,47.30
2022-08-02T14:09:50.145Z,47.47
2022-08-02T14:12:17.877Z,47.89
2022-08-02T14:14:45.657Z,47.60
2022-08-02T14:17:13.889Z,46.57
2022-08-02T14:19:41.581Z,47.24
2022-08-02T14:22:12.057Z,47.00
2022-08-02T14:24:42.377Z,47.03
2022-08-02T14:27:10.492Z,47.14
2022-08-02T14:29:38.351Z,47.28
2022-08-02T14:32:06.701Z,47.49
2022-08-02T14:34:34.405Z,47.52
2022-08-02T14:37:02.100Z,47.20
2022-08-02T14:39:43.449Z,47.55
2022-08-02T14:42:18.949Z,47.54
2022-08-02T14:44:46.693Z,46.78
2022-08-02T14:47:14.449Z,47.87
2022-08-02T14:49:44.221Z,47.99
2022-08-02T14:52:15.450Z,48.07
2022-08-02T14:54:43.941Z,48.21
2022-08-02T14:57:14.639Z,47.88
2022-08-02T14:59:43.796Z,48.33
2022-08-02T15:02:13.302Z,49.02
2022-08-02T15:04:42.753Z,47.94
2022-08-02T15:07:11.892Z,48.87
2022-08-02T15:09:40.065Z,49.12
2022-08-02T15:12:09.111Z,48.99
2022-08-02T15:14:37.007Z,50.40
2022-08-02T15:17:06.305Z,50.42
2022-08-02T15:19:57.590Z,50.09
2022-08-02T15:22:22.075Z,51.02
2022-08-02T15:24:49.867Z,50.89
2022-08-02T15:27:17.872Z,50.70
2022-08-02T15:29:46.490Z,51.37
2022-08-02T15:32:18.729Z,51.83
2022-08-02T15:34:47.223Z,51.12
2022-08-02T15:37:14.932Z,51.58
2022-08-02T15:39:42.680Z,50.94
2022-08-02T15:42:10.665Z,51.34
2022-08-02T15:44:40.433Z,51.46
2022-08-02T15:47:08.299Z,51.20
2022-08-02T15:49:41.360Z,50.83
2022-08-02T15:52:11.257Z,51.26
2022-08-02T15:54:39.368Z,50.48
2022-08-02T15:57:07.337Z,51.02
2022-08-02T15:59:35.124Z,50.62
2022-08-02T16:02:06.574Z,50.85
2022-08-02T16:04:34.377Z,51.26
2022-08-02T16:07:03.459Z,50.96
2022-08-02T16:09:31.210Z,51.60
2022-08-02T16:11:59.064Z,51.93
2022-08-02T16:14:26.923Z,52.36
2022-08-02T16:16:56.059Z,51.90
2022-08-02T16:19:47.734Z,53.00
2022-08-02T16:22:13.588Z,52.60
2022-08-02T16:24:41.489Z,52.55
2022-08-02T16:27:09.383Z,53.05
2022-08-02T16:29:37.357Z,52.95
2022-08-02T16:32:05.783Z,53.19
2022-08-02T16:34:50.750Z,53.25
2022-08-02T16:37:22.586Z,53.22
2022-08-02T16:39:50.310Z,53.54
2022-08-02T16:42:25.330Z,53.79
2022-08-02T16:44:54.667Z,54.12
2022-08-02T16:47:37.050Z,54.45
2022-08-02T16:50:11.035Z,54.86
2022-08-02T16:52:40.320Z,55.44
2022-08-02T16:55:11.239Z,54.80
2022-08-02T16:57:43.281Z,55.44
2022-08-02T17:00:15.417Z,55.10
2022-08-02T17:02:43.461Z,55.68
2022-08-02T17:05:14.357Z,56.04
2022-08-02T17:08:16.676Z,55.80
2022-08-02T17:10:33.443Z,55.87
2022-08-02T17:13:11.319Z,55.54
2022-08-02T17:16:16.234Z,56.35
2022-08-02T17:18:29.904Z,56.01
2022-08-02T17:20:57.847Z,56.29
2022-08-02T17:24:03.998Z,56.21
2022-08-02T17:26:14.822Z,57.03
2022-08-02T17:29:16.814Z,56.78
2022-08-02T17:31:37.355Z,56.29
2022-08-02T17:34:10.839Z,56.48
2022-08-02T17:36:38.950Z,56.69
2022-08-02T17:39:08.231Z,57.25
2022-08-02T17:41:38.101Z,57.72
2022-08-02T17:44:16.767Z,57.45
2022-08-02T17:47:07.378Z,58.17
2022-08-02T17:49:42.788Z,59.91
2022-08-02T17:52:15.733Z,59.48
2022-08-02T17:55:03.340Z,59.06
2022-08-02T17:57:57.281Z,59.67
2022-08-02T18:00:19.967Z,59.00
2022-08-02T18:02:52.989Z,60.02
2022-08-02T18:05:40.449Z,59.95
2022-08-02T18:08:13.971Z,59.70
2022-08-02T18:10:43.727Z,60.75
2022-08-02T18:13:11.951Z,61.71
2022-08-02T18:15:39.870Z,61.69
2022-08-02T18:18:08.115Z,62.78
2022-08-02T18:20:36.400Z,62.76
2022-08-02T18:23:05.514Z,63.09
2022-08-02T18:25:45.854Z,62.91
2022-08-02T18:28:16.885Z,61.91
2022-08-02T18:30:44.861Z,61.03
2022-08-02T18:36:00.531Z,61.54
2022-08-02T18:38:31.301Z,61.19
2022-08-02T18:41:02.296Z,61.21
2022-08-02T18:43:34.753Z,62.21
2022-08-02T18:46:15.857Z,61.65
2022-08-02T18:48:46.208Z,61.73
2022-08-02T18:51:15.481Z,61.76
2022-08-02T18:53:43.699Z,61.30
2022-08-02T18:56:20.187Z,61.32
2022-08-02T18:58:54.671Z,61.54
2022-08-02T19:01:32.075Z,61.31
2022-08-02T19:06:54.177Z,62.07
2022-08-02T19:09:21.951Z,62.87
2022-08-02T19:11:50.364Z,62.15
2022-08-02T19:14:27.601Z,62.23
2022-08-02T19:16:57.742Z,61.94
2022-08-02T19:19:28.701Z,61.89
2022-08-02T19:22:17.318Z,62.46
2022-08-02T19:24:46.225Z,62.66
2022-08-02T19:27:14.757Z,62.73
2022-08-02T19:29:48.790Z,62.38
2022-08-02T19:32:40.356Z,62.34
2022-08-02T19:35:19.330Z,62.12
2022-08-02T19:37:59.189Z,62.34
2022-08-02T19:40:27.599Z,62.55
2022-08-02T19:44:22.839Z,62.79
2022-08-02T19:45:49.967Z,62.00
2022-08-02T19:48:23.845Z,63.15
2022-08-02T19:50:53.782Z,63.63
2022-08-02T19:53:29.003Z,63.44
2022-08-02T19:56:12.387Z,63.92
2022-08-02T19:58:44.787Z,63.71
2022-08-02T20:01:14.161Z,63.29
2022-08-02T20:03:51.669Z,64.31
2022-08-02T20:06:29.641Z,63.21
2022-08-02T20:09:01.347Z,63.32
2022-08-02T20:11:34.958Z,63.54
2022-08-02T20:14:04.520Z,64.15
2022-08-02T20:16:34.288Z,64.00
2022-08-02T20:19:03.848Z,63.67
2022-08-02T20:21:35.613Z,63.16
2022-08-02T20:24:06.572Z,63.58
2022-08-02T20:26:38.195Z,63.25
2022-08-02T20:29:06.204Z,63.26
2022-08-02T20:31:37.374Z,64.03
2022-08-02T20:34:05.445Z,63.88
2022-08-02T20:36:35.085Z,63.89
2022-08-02T20:39:05.079Z,64.05
2022-08-02T20:41:37.111Z,63.51
2022-08-02T20:44:15.298Z,63.82
2022-08-02T20:46:45.671Z,63.89
2022-08-02T20:49:21.545Z,63.91
2022-08-02T20:51:52.829Z,64.00
2022-08-02T20:54:22.559Z,64.57
2022-08-02T20:56:50.878Z,64.13
2022-08-02T20:59:21.117Z,63.94
2022-08-02T21:01:56.766Z,64.39
2022-08-02T21:04:26.157Z,65.45
2022-08-02T21:06:55.704Z,66.23
2022-08-02T21:09:52.615Z,65.17
2022-08-02T21:12:12.539Z,65.28
2022-08-02T21:14:40.664Z,65.62
2022-08-02T21:17:11.281Z,65.53
2022-08-02T21:19:45.779Z,64.92
2022-08-02T21:22:14.874Z,65.28
2022-08-02T21:24:42.865Z,64.80
2022-08-02T21:27:13.177Z,64.76
2022-08-02T21:30:00.744Z,64.89
2022-08-02T21:32:30.870Z,64.31
2022-08-02T21:34:58.982Z,64.84
2022-08-02T21:37:33.226Z,64.79
2022-08-02T21:40:13.824Z,64.70
2022-08-02T21:42:41.818Z,64.52
2022-08-02T21:45:16.942Z,64.49
2022-08-02T21:47:46.647Z,63.98
2022-08-02T21:53:04.099Z,64.69
2022-08-02T21:56:00.069Z,65.11
2022-08-02T21:58:19.940Z,65.09
2022-08-02T22:00:47.950Z,65.72
2022-08-02T22:03:22.777Z,65.71
2022-08-02T22:06:06.041Z,65.02
2022-08-02T22:08:35.332Z,65.53
2022-08-02T22:11:03.798Z,65.58
2022-08-02T22:13:38.627Z,66.33
2022-08-02T22:16:15.167Z,67.15
2022-08-02T22:18:51.511Z,67.22
2022-08-02T22:21:20.791Z,66.59
2022-08-02T22:23:51.222Z,65.61
2022-08-02T22:26:19.761Z,66.12
2022-08-02T22:28:50.487Z,66.28
2022-08-02T22:31:40.410Z,65.66
2022-08-02T22:34:26.845Z,65.54
2022-08-02T22:36:58.470Z,65.96
2022-08-02T22:39:26.179Z,65.89
2022-08-02T22:42:06.029Z,66.12
2022-08-02T22:44:44.207Z,65.93
2022-08-02T22:47:14.581Z,65.89
2022-08-02T22:49:52.856Z,65.47
2022-08-02T22:52:23.952Z,66.31
2022-08-02T22:54:51.793Z,65.72
2022-08-02T22:57:30.851Z,65.66
2022-08-02T22:58:59.433Z,61.87
2022-08-02T22:59:03.542Z,64.35
2022-08-02T22:59:59.771Z,65.55
2022-08-02T23:02:27.634Z,65.37
2022-08-02T23:04:56.805Z,65.39
2022-08-02T23:07:24.553Z,65.30
2022-08-02T23:09:52.280Z,65.56
2022-08-02T23:12:20.241Z,65.52
2022-08-02T23:14:48.520Z,66.06
2022-08-02T23:17:34.017Z,65.96
2022-08-02T23:20:03.314Z,65.76
2022-08-02T23:22:32.214Z,65.49
2022-08-02T23:25:03.094Z,66.52
2022-08-02T23:29:59.552Z,66.23
2022-08-02T23:32:27.636Z,65.92
2022-08-02T23:34:55.947Z,65.88
2022-08-02T23:37:25.677Z,65.50
2022-08-02T23:39:53.488Z,65.42
2022-08-02T23:42:23.112Z,65.58
2022-08-02T23:44:50.817Z,65.42
2022-08-02T23:47:18.769Z,65.45
2022-08-02T23:49:46.894Z,65.72
2022-08-02T23:52:14.942Z,65.26
2022-08-02T23:54:44.240Z,65.10
2022-08-02T23:57:20.618Z,65.59
2022-08-02T23:59:50.586Z,65.98
